sensor_id;sensor_type;location;lat;lon;timestamp;pressure;altitude;pressure_sealevel;temperature;humidity
21803;BME280;18591;47.080;22.214;2023-02-23T00:01:17;99676.53;;;7.32;49.32
21803;BME280;18591;47.080;22.214;2023-02-23T00:03:20;99675.72;;;7.29;49.33
21803;BME280;18591;47.080;22.214;2023-02-23T00:05:22;99675.78;;;7.27;49.32
21803;BME280;18591;47.080;22.214;2023-02-23T00:07:24;99674.91;;;7.25;49.13
21803;BME280;18591;47.080;22.214;2023-02-23T00:09:28;99680.34;;;7.22;49.10
21803;BME280;18591;47.080;22.214;2023-02-23T00:11:38;99671.41;;;7.22;49.30
21803;BME280;18591;47.080;22.214;2023-02-23T00:13:42;99672.38;;;7.19;49.33
21803;BME280;18591;47.080;22.214;2023-02-23T00:15:46;99675.97;;;7.16;49.57
21803;BME280;18591;47.080;22.214;2023-02-23T00:17:49;99676.13;;;7.12;49.80
21803;BME280;18591;47.080;22.214;2023-02-23T00:19:52;99677.84;;;7.13;49.01
21803;BME280;18591;47.080;22.214;2023-02-23T00:21:55;99683.38;;;7.05;49.63
21803;BME280;18591;47.080;22.214;2023-02-23T00:24:02;99678.03;;;7.05;49.37
21803;BME280;18591;47.080;22.214;2023-02-23T00:26:05;99684.31;;;7.03;49.75
21803;BME280;18591;47.080;22.214;2023-02-23T00:28:07;99685.25;;;7.02;49.63
21803;BME280;18591;47.080;22.214;2023-02-23T00:30:12;99677.31;;;6.97;49.41
21803;BME280;18591;47.080;22.214;2023-02-23T00:32:14;99675.53;;;6.96;49.60
21803;BME280;18591;47.080;22.214;2023-02-23T00:34:20;99680.94;;;6.93;49.84
21803;BME280;18591;47.080;22.214;2023-02-23T00:36:27;99675.66;;;6.91;49.79
21803;BME280;18591;47.080;22.214;2023-02-23T00:38:29;99675.69;;;6.90;50.43
21803;BME280;18591;47.080;22.214;2023-02-23T00:40:39;99679.31;;;6.86;50.99
21803;BME280;18591;47.080;22.214;2023-02-23T00:42:44;99675.94;;;6.78;50.51
21803;BME280;18591;47.080;22.214;2023-02-23T00:44:47;99675.81;;;6.84;50.62
21803;BME280;18591;47.080;22.214;2023-02-23T00:46:50;99672.25;;;6.83;50.53
21803;BME280;18591;47.080;22.214;2023-02-23T00:48:55;99666.94;;;6.82;50.91
21803;BME280;18591;47.080;22.214;2023-02-23T00:51:01;99668.75;;;6.81;50.69
21803;BME280;18591;47.080;22.214;2023-02-23T00:53:04;99667.91;;;6.79;50.79
21803;BME280;18591;47.080;22.214;2023-02-23T00:55:11;99668.84;;;6.75;50.96
21803;BME280;18591;47.080;22.214;2023-02-23T00:57:13;99670.66;;;6.74;50.67
21803;BME280;18591;47.080;22.214;2023-02-23T00:59:18;99674.28;;;6.72;50.42
21803;BME280;18591;47.080;22.214;2023-02-23T01:01:21;99672.44;;;6.74;50.73
21803;BME280;18591;47.080;22.214;2023-02-23T01:03:25;99673.41;;;6.70;50.74
21803;BME280;18591;47.080;22.214;2023-02-23T01:05:28;99668.06;;;6.70;50.71
21803;BME280;18591;47.080;22.214;2023-02-23T01:07:30;99666.34;;;6.67;50.73
21803;BME280;18591;47.080;22.214;2023-02-23T01:09:32;99671.72;;;6.66;50.61
21803;BME280;18591;47.080;22.214;2023-02-23T01:11:34;99671.69;;;6.67;50.72
21803;BME280;18591;47.080;22.214;2023-02-23T01:13:37;99673.50;;;6.65;50.62
21803;BME280;18591;47.080;22.214;2023-02-23T01:15:43;99668.31;;;6.58;50.97
21803;BME280;18591;47.080;22.214;2023-02-23T01:17:46;99674.50;;;6.61;50.79
21803;BME280;18591;47.080;22.214;2023-02-23T01:19:49;99666.47;;;6.61;50.45
21803;BME280;18591;47.080;22.214;2023-02-23T01:21:51;99665.59;;;6.61;50.07
21803;BME280;18591;47.080;22.214;2023-02-23T01:23:54;99669.22;;;6.58;50.39
21803;BME280;18591;47.080;22.214;2023-02-23T01:25:57;99675.56;;;6.52;50.64
21803;BME280;18591;47.080;22.214;2023-02-23T01:27:59;99667.56;;;6.52;50.68
21803;BME280;18591;47.080;22.214;2023-02-23T01:30:01;99663.09;;;6.53;51.05
21803;BME280;18591;47.080;22.214;2023-02-23T01:32:04;99656.97;;;6.48;50.83
21803;BME280;18591;47.080;22.214;2023-02-23T01:34:06;99658.94;;;6.38;51.54
21803;BME280;18591;47.080;22.214;2023-02-23T01:36:09;99660.66;;;6.39;51.44
21803;BME280;18591;47.080;22.214;2023-02-23T01:38:13;99656.19;;;6.43;51.13
21803;BME280;18591;47.080;22.214;2023-02-23T01:40:21;99655.38;;;6.38;51.57
21803;BME280;18591;47.080;22.214;2023-02-23T01:42:31;99657.97;;;6.41;51.12
21803;BME280;18591;47.080;22.214;2023-02-23T01:46:41;99658.16;;;6.31;51.45
21803;BME280;18591;47.080;22.214;2023-02-23T01:48:44;99650.16;;;6.31;51.06
21803;BME280;18591;47.080;22.214;2023-02-23T01:51:09;99646.69;;;6.26;51.52
21803;BME280;18591;47.080;22.214;2023-02-23T01:53:11;99651.06;;;6.30;51.07
21803;BME280;18591;47.080;22.214;2023-02-23T01:55:14;99651.94;;;6.31;51.21
21803;BME280;18591;47.080;22.214;2023-02-23T01:57:24;99652.03;;;6.26;51.26
21803;BME280;18591;47.080;22.214;2023-02-23T01:59:46;99659.09;;;6.29;52.08
21803;BME280;18591;47.080;22.214;2023-02-23T02:01:49;99650.16;;;6.31;51.02
21803;BME280;18591;47.080;22.214;2023-02-23T02:03:57;99655.53;;;6.30;52.23
21803;BME280;18591;47.080;22.214;2023-02-23T02:06:02;99655.44;;;6.35;51.27
21803;BME280;18591;47.080;22.214;2023-02-23T02:08:06;99664.41;;;6.30;52.66
21803;BME280;18591;47.080;22.214;2023-02-23T02:10:10;99661.81;;;6.27;53.08
21803;BME280;18591;47.080;22.214;2023-02-23T02:12:13;99653.91;;;6.21;53.51
21803;BME280;18591;47.080;22.214;2023-02-23T02:14:20;99660.16;;;6.19;53.53
21803;BME280;18591;47.080;22.214;2023-02-23T02:16:41;99658.34;;;6.21;53.05
21803;BME280;18591;47.080;22.214;2023-02-23T02:19:15;99655.81;;;6.15;54.26
21803;BME280;18591;47.080;22.214;2023-02-23T02:42:37;99638.34;;;5.97;54.46
21803;BME280;18591;47.080;22.214;2023-02-23T02:47:11;99637.47;;;5.96;54.44
21803;BME280;18591;47.080;22.214;2023-02-23T02:49:31;99638.41;;;5.94;55.03
21803;BME280;18591;47.080;22.214;2023-02-23T02:51:44;99640.34;;;5.82;54.74
21803;BME280;18591;47.080;22.214;2023-02-23T02:54:12;99644.75;;;5.85;55.21
21803;BME280;18591;47.080;22.214;2023-02-23T02:56:17;99634.00;;;5.88;54.51
21803;BME280;18591;47.080;22.214;2023-02-23T02:58:22;99634.84;;;5.92;54.20
21803;BME280;18591;47.080;22.214;2023-02-23T03:00:40;99648.25;;;5.88;55.00
21803;BME280;18591;47.080;22.214;2023-02-23T03:03:02;99643.72;;;5.92;54.74
21803;BME280;18591;47.080;22.214;2023-02-23T03:05:34;99646.53;;;5.83;54.73
21803;BME280;18591;47.080;22.214;2023-02-23T03:11:06;99643.00;;;5.82;55.35
21803;BME280;18591;47.080;22.214;2023-02-23T03:13:39;99639.47;;;5.80;55.78
21803;BME280;18591;47.080;22.214;2023-02-23T03:16:26;99646.53;;;5.86;56.34
21803;BME280;18591;47.080;22.214;2023-02-23T03:21:28;99649.94;;;5.93;55.29
21803;BME280;18591;47.080;22.214;2023-02-23T03:24:08;99645.63;;;5.85;56.85
21803;BME280;18591;47.080;22.214;2023-02-23T03:27:00;99644.66;;;5.89;56.77
21803;BME280;18591;47.080;22.214;2023-02-23T03:32:00;99643.69;;;5.97;57.19
21803;BME280;18591;47.080;22.214;2023-02-23T03:37:15;99649.91;;;5.97;56.57
21803;BME280;18591;47.080;22.214;2023-02-23T03:39:44;99644.56;;;5.96;56.15
21803;BME280;18591;47.080;22.214;2023-02-23T03:42:17;99655.34;;;5.89;56.42
21803;BME280;18591;47.080;22.214;2023-02-23T03:44:42;99647.25;;;5.96;55.25
21803;BME280;18591;47.080;22.214;2023-02-23T03:47:04;99647.22;;;5.97;55.16
21803;BME280;18591;47.080;22.214;2023-02-23T03:49:28;99646.41;;;5.90;55.69
21803;BME280;18591;47.080;22.214;2023-02-23T03:51:56;99648.31;;;5.84;55.46
21803;BME280;18591;47.080;22.214;2023-02-23T03:54:36;99644.69;;;5.88;55.55
21803;BME280;18591;47.080;22.214;2023-02-23T03:57:03;99647.56;;;5.76;55.44
21803;BME280;18591;47.080;22.214;2023-02-23T03:59:29;99656.44;;;5.76;55.63
21803;BME280;18591;47.080;22.214;2023-02-23T04:01:53;99647.41;;;5.85;55.08
21803;BME280;18591;47.080;22.214;2023-02-23T04:04:16;99655.28;;;5.93;54.79
21803;BME280;18591;47.080;22.214;2023-02-23T04:06:42;99658.06;;;5.85;55.13
21803;BME280;18591;47.080;22.214;2023-02-23T04:09:05;99653.66;;;5.84;54.61
21803;BME280;18591;47.080;22.214;2023-02-23T04:11:45;99656.13;;;5.93;54.48
21803;BME280;18591;47.080;22.214;2023-02-23T04:14:16;99652.69;;;5.88;54.74
21803;BME280;18591;47.080;22.214;2023-02-23T04:16:19;99652.56;;;5.96;54.16
21803;BME280;18591;47.080;22.214;2023-02-23T04:18:24;99650.00;;;5.89;54.78
21803;BME280;18591;47.080;22.214;2023-02-23T04:20:27;99649.03;;;5.95;54.20
21803;BME280;18591;47.080;22.214;2023-02-23T04:22:29;99650.81;;;5.95;54.10
21803;BME280;18591;47.080;22.214;2023-02-23T04:24:31;99656.19;;;5.92;54.11
21803;BME280;18591;47.080;22.214;2023-02-23T04:26:34;99651.69;;;5.97;53.94
21803;BME280;18591;47.080;22.214;2023-02-23T04:28:36;99647.22;;;5.97;53.76
21803;BME280;18591;47.080;22.214;2023-02-23T04:30:38;99654.28;;;6.00;53.85
21803;BME280;18591;47.080;22.214;2023-02-23T04:32:41;99654.34;;;5.97;53.33
21803;BME280;18591;47.080;22.214;2023-02-23T04:34:45;99650.78;;;5.98;53.65
21803;BME280;18591;47.080;22.214;2023-02-23T04:36:47;99652.63;;;5.94;53.57
21803;BME280;18591;47.080;22.214;2023-02-23T04:38:52;99656.16;;;5.95;53.83
21803;BME280;18591;47.080;22.214;2023-02-23T04:40:54;99655.34;;;5.89;53.74
21803;BME280;18591;47.080;22.214;2023-02-23T04:42:56;99651.78;;;5.89;53.91
21803;BME280;18591;47.080;22.214;2023-02-23T04:44:58;99655.34;;;5.88;53.37
21803;BME280;18591;47.080;22.214;2023-02-23T04:47:00;99653.94;;;5.67;55.36
21803;BME280;18591;47.080;22.214;2023-02-23T04:49:02;99653.78;;;5.75;54.46
21803;BME280;18591;47.080;22.214;2023-02-23T04:51:05;99654.59;;;5.80;54.33
21803;BME280;18591;47.080;22.214;2023-02-23T04:53:07;99651.84;;;5.86;54.78
21803;BME280;18591;47.080;22.214;2023-02-23T04:55:20;99655.44;;;5.83;55.31
21803;BME280;18591;47.080;22.214;2023-02-23T04:57:23;99656.34;;;5.82;55.58
21803;BME280;18591;47.080;22.214;2023-02-23T04:59:26;99655.47;;;5.82;54.97
21803;BME280;18591;47.080;22.214;2023-02-23T05:01:31;99656.25;;;5.87;54.67
21803;BME280;18591;47.080;22.214;2023-02-23T05:03:34;99654.53;;;5.83;54.59
21803;BME280;18591;47.080;22.214;2023-02-23T05:05:37;99654.53;;;5.83;54.56
21803;BME280;18591;47.080;22.214;2023-02-23T05:07:39;99653.59;;;5.85;54.00
21803;BME280;18591;47.080;22.214;2023-02-23T05:09:42;99655.38;;;5.86;54.13
21803;BME280;18591;47.080;22.214;2023-02-23T05:11:44;99652.72;;;5.85;54.44
21803;BME280;18591;47.080;22.214;2023-02-23T05:13:46;99660.72;;;5.86;54.39
21803;BME280;18591;47.080;22.214;2023-02-23T05:15:49;99660.72;;;5.85;54.19
21803;BME280;18591;47.080;22.214;2023-02-23T05:17:51;99659.13;;;5.76;54.84
21803;BME280;18591;47.080;22.214;2023-02-23T05:19:54;99658.19;;;5.79;54.27
21803;BME280;18591;47.080;22.214;2023-02-23T05:21:57;99660.91;;;5.74;54.95
21803;BME280;18591;47.080;22.214;2023-02-23T05:23:59;99664.41;;;5.78;54.71
21803;BME280;18591;47.080;22.214;2023-02-23T05:26:08;99663.72;;;5.65;55.54
21803;BME280;18591;47.080;22.214;2023-02-23T05:28:10;99668.22;;;5.63;55.05
21803;BME280;18591;47.080;22.214;2023-02-23T05:30:12;99666.44;;;5.63;55.20
21803;BME280;18591;47.080;22.214;2023-02-23T05:32:15;99657.63;;;5.57;55.99
21803;BME280;18591;47.080;22.214;2023-02-23T05:34:17;99652.31;;;5.57;55.35
21803;BME280;18591;47.080;22.214;2023-02-23T05:36:20;99662.16;;;5.52;55.17
21803;BME280;18591;47.080;22.214;2023-02-23T05:38:22;99662.16;;;5.52;55.53
21803;BME280;18591;47.080;22.214;2023-02-23T05:40:24;99671.03;;;5.54;55.04
21803;BME280;18591;47.080;22.214;2023-02-23T05:42:27;99669.47;;;5.40;56.31
21803;BME280;18591;47.080;22.214;2023-02-23T05:44:29;99671.25;;;5.40;55.84
21803;BME280;18591;47.080;22.214;2023-02-23T05:46:31;99667.66;;;5.42;55.97
21803;BME280;18591;47.080;22.214;2023-02-23T05:48:33;99677.41;;;5.42;56.25
21803;BME280;18591;47.080;22.214;2023-02-23T05:50:35;99673.81;;;5.44;55.50
21803;BME280;18591;47.080;22.214;2023-02-23T05:52:39;99676.47;;;5.48;55.52
21803;BME280;18591;47.080;22.214;2023-02-23T05:54:42;99679.19;;;5.43;55.48
21803;BME280;18591;47.080;22.214;2023-02-23T05:56:44;99677.28;;;5.50;55.66
21803;BME280;18591;47.080;22.214;2023-02-23T05:58:53;99682.53;;;5.56;55.97
21803;BME280;18591;47.080;22.214;2023-02-23T06:00:56;99680.69;;;5.59;55.72
21803;BME280;18591;47.080;22.214;2023-02-23T06:02:59;99681.78;;;5.46;56.13
21803;BME280;18591;47.080;22.214;2023-02-23T06:05:01;99687.03;;;5.52;56.33
21803;BME280;18591;47.080;22.214;2023-02-23T06:07:03;99683.47;;;5.52;56.74
21803;BME280;18591;47.080;22.214;2023-02-23T06:09:06;99683.59;;;5.45;57.23
21803;BME280;18591;47.080;22.214;2023-02-23T06:11:08;99690.38;;;5.65;56.24
21803;BME280;18591;47.080;22.214;2023-02-23T06:13:10;99692.91;;;5.74;55.75
21803;BME280;18591;47.080;22.214;2023-02-23T06:15:13;99691.97;;;5.77;56.40
21803;BME280;18591;47.080;22.214;2023-02-23T06:17:15;99688.19;;;5.90;55.37
21803;BME280;18591;47.080;22.214;2023-02-23T06:19:23;99698.81;;;5.93;55.84
21803;BME280;18591;47.080;22.214;2023-02-23T06:21:26;99693.44;;;5.98;55.78
21803;BME280;18591;47.080;22.214;2023-02-23T06:23:29;99692.34;;;6.09;55.74
21803;BME280;18591;47.080;22.214;2023-02-23T06:25:32;99694.84;;;6.19;55.31
21803;BME280;18591;47.080;22.214;2023-02-23T06:27:33;99690.31;;;6.24;55.21
21803;BME280;18591;47.080;22.214;2023-02-23T06:29:37;99686.63;;;6.31;55.52
21803;BME280;18591;47.080;22.214;2023-02-23T06:31:40;99692.00;;;6.29;55.61
21803;BME280;18591;47.080;22.214;2023-02-23T06:33:45;99696.34;;;6.35;55.30
21803;BME280;18591;47.080;22.214;2023-02-23T06:35:48;99691.97;;;6.31;55.93
21803;BME280;18591;47.080;22.214;2023-02-23T06:37:50;99693.59;;;6.40;55.75
21803;BME280;18591;47.080;22.214;2023-02-23T06:39:56;99697.88;;;6.47;55.58
21803;BME280;18591;47.080;22.214;2023-02-23T06:41:58;99697.69;;;6.58;55.31
21803;BME280;18591;47.080;22.214;2023-02-23T06:44:01;99686.91;;;6.62;55.49
21803;BME280;18591;47.080;22.214;2023-02-23T06:46:04;99693.97;;;6.65;55.18
21803;BME280;18591;47.080;22.214;2023-02-23T06:48:07;99684.94;;;6.73;55.60
21803;BME280;18591;47.080;22.214;2023-02-23T06:50:09;99693.66;;;6.82;55.10
21803;BME280;18591;47.080;22.214;2023-02-23T06:52:12;99693.44;;;6.91;55.04
21803;BME280;18591;47.080;22.214;2023-02-23T06:54:14;99688.94;;;6.94;55.33
21803;BME280;18591;47.080;22.214;2023-02-23T06:56:16;99685.09;;;7.08;54.80
21803;BME280;18591;47.080;22.214;2023-02-23T06:58:18;99680.38;;;7.19;54.71
21803;BME280;18591;47.080;22.214;2023-02-23T07:00:21;99674.78;;;7.31;54.48
21803;BME280;18591;47.080;22.214;2023-02-23T07:02:24;99683.38;;;7.44;54.48
21803;BME280;18591;47.080;22.214;2023-02-23T07:04:26;99677.59;;;7.62;54.18
21803;BME280;18591;47.080;22.214;2023-02-23T07:06:28;99678.16;;;7.77;53.59
21803;BME280;18591;47.080;22.214;2023-02-23T07:08:32;99682.38;;;7.87;53.55
21803;BME280;18591;47.080;22.214;2023-02-23T07:10:34;99676.72;;;7.99;53.72
21803;BME280;18591;47.080;22.214;2023-02-23T07:12:36;99675.41;;;8.14;53.52
21803;BME280;18591;47.080;22.214;2023-02-23T07:14:38;99671.75;;;8.18;53.37
21803;BME280;18591;47.080;22.214;2023-02-23T07:16:41;99673.38;;;8.24;53.56
21803;BME280;18591;47.080;22.214;2023-02-23T07:18:43;99672.09;;;8.40;53.52
21803;BME280;18591;47.080;22.214;2023-02-23T07:20:45;99678.91;;;8.52;53.22
21803;BME280;18591;47.080;22.214;2023-02-23T07:22:47;99673.25;;;8.63;52.98
21803;BME280;18591;47.080;22.214;2023-02-23T07:24:49;99674.94;;;8.67;52.48
21803;BME280;18591;47.080;22.214;2023-02-23T07:26:51;99666.34;;;8.85;52.34
21803;BME280;18591;47.080;22.214;2023-02-23T07:28:53;99669.66;;;8.95;52.71
21803;BME280;18591;47.080;22.214;2023-02-23T07:30:56;99672.13;;;9.01;52.56
21803;BME280;18591;47.080;22.214;2023-02-23T07:32:59;99672.72;;;9.12;52.30
21803;BME280;18591;47.080;22.214;2023-02-23T07:35:02;99679.63;;;9.20;51.11
21803;BME280;18591;47.080;22.214;2023-02-23T07:37:07;99674.81;;;9.31;50.42
21803;BME280;18591;47.080;22.214;2023-02-23T07:39:10;99677.06;;;9.45;50.93
21803;BME280;18591;47.080;22.214;2023-02-23T07:41:12;99678.53;;;9.55;50.91
21803;BME280;18591;47.080;22.214;2023-02-23T07:43:14;99670.50;;;9.55;50.33
21803;BME280;18591;47.080;22.214;2023-02-23T07:45:16;99663.88;;;9.67;50.05
21803;BME280;18591;47.080;22.214;2023-02-23T07:47:19;99664.59;;;9.72;50.06
21803;BME280;18591;47.080;22.214;2023-02-23T07:49:25;99676.53;;;9.62;48.96
21803;BME280;18591;47.080;22.214;2023-02-23T07:51:27;99673.66;;;9.68;49.06
21803;BME280;18591;47.080;22.214;2023-02-23T07:53:30;99669.56;;;9.84;49.07
21803;BME280;18591;47.080;22.214;2023-02-23T07:55:32;99669.34;;;9.90;49.02
21803;BME280;18591;47.080;22.214;2023-02-23T07:57:34;99667.75;;;9.85;49.19
21803;BME280;18591;47.080;22.214;2023-02-23T07:59:36;99672.75;;;9.95;49.77
21803;BME280;18591;47.080;22.214;2023-02-23T08:01:40;99668.81;;;10.06;49.55
21803;BME280;18591;47.080;22.214;2023-02-23T08:03:42;99664.16;;;10.12;49.25
21803;BME280;18591;47.080;22.214;2023-02-23T08:05:50;99668.06;;;10.02;48.37
21803;BME280;18591;47.080;22.214;2023-02-23T08:07:53;99671.97;;;10.18;48.35
21803;BME280;18591;47.080;22.214;2023-02-23T08:09:56;99678.66;;;10.33;48.33
21803;BME280;18591;47.080;22.214;2023-02-23T08:11:59;99679.31;;;10.40;48.60
21803;BME280;18591;47.080;22.214;2023-02-23T08:14:01;99680.84;;;10.47;48.67
21803;BME280;18591;47.080;22.214;2023-02-23T08:16:07;99672.63;;;10.52;48.93
21803;BME280;18591;47.080;22.214;2023-02-23T08:18:09;99676.91;;;10.57;47.86
21803;BME280;18591;47.080;22.214;2023-02-23T08:20:12;99674.69;;;10.68;48.16
21803;BME280;18591;47.080;22.214;2023-02-23T08:22:14;99667.75;;;10.63;47.57
21803;BME280;18591;47.080;22.214;2023-02-23T08:24:17;99672.63;;;10.77;48.23
21803;BME280;18591;47.080;22.214;2023-02-23T08:26:19;99670.53;;;10.85;48.53
21803;BME280;18591;47.080;22.214;2023-02-23T08:28:21;99674.13;;;10.84;47.59
21803;BME280;18591;47.080;22.214;2023-02-23T08:30:26;99677.16;;;11.00;48.15
21803;BME280;18591;47.080;22.214;2023-02-23T08:32:31;99679.47;;;11.09;47.78
21803;BME280;18591;47.080;22.214;2023-02-23T08:34:40;99670.25;;;11.16;46.48
21803;BME280;18591;47.080;22.214;2023-02-23T08:36:44;99671.75;;;11.23;47.02
21803;BME280;18591;47.080;22.214;2023-02-23T08:38:47;99676.25;;;11.23;46.92
21803;BME280;18591;47.080;22.214;2023-02-23T08:40:49;99670.75;;;11.26;47.25
21803;BME280;18591;47.080;22.214;2023-02-23T08:42:52;99672.28;;;11.33;47.50
21803;BME280;18591;47.080;22.214;2023-02-23T08:44:54;99669.50;;;11.34;47.24
21803;BME280;18591;47.080;22.214;2023-02-23T08:46:56;99673.16;;;11.33;47.46
21803;BME280;18591;47.080;22.214;2023-02-23T08:49:02;99675.59;;;11.40;47.10
21803;BME280;18591;47.080;22.214;2023-02-23T08:51:06;99671.91;;;11.42;46.33
21803;BME280;18591;47.080;22.214;2023-02-23T08:53:08;99676.09;;;11.49;46.83
21803;BME280;18591;47.080;22.214;2023-02-23T08:55:11;99676.75;;;11.56;47.12
21803;BME280;18591;47.080;22.214;2023-02-23T08:57:14;99674.13;;;11.54;47.29
21803;BME280;18591;47.080;22.214;2023-02-23T08:59:18;99677.44;;;11.61;47.11
21803;BME280;18591;47.080;22.214;2023-02-23T09:01:20;99675.53;;;11.63;46.53
21803;BME280;18591;47.080;22.214;2023-02-23T09:03:23;99682.53;;;11.69;47.20
21803;BME280;18591;47.080;22.214;2023-02-23T09:05:27;99679.53;;;11.76;46.22
21803;BME280;18591;47.080;22.214;2023-02-23T09:07:29;99682.88;;;11.82;46.59
21803;BME280;18591;47.080;22.214;2023-02-23T09:09:31;99681.22;;;11.79;45.60
21803;BME280;18591;47.080;22.214;2023-02-23T09:11:35;99676.44;;;11.86;45.86
21803;BME280;18591;47.080;22.214;2023-02-23T09:13:37;99679.03;;;11.89;45.96
21803;BME280;18591;47.080;22.214;2023-02-23T09:15:40;99678.03;;;11.91;44.92
21803;BME280;18591;47.080;22.214;2023-02-23T09:17:42;99674.81;;;12.04;44.80
21803;BME280;18591;47.080;22.214;2023-02-23T09:19:45;99671.94;;;12.08;44.58
21803;BME280;18591;47.080;22.214;2023-02-23T09:21:47;99675.91;;;12.20;45.14
21803;BME280;18591;47.080;22.214;2023-02-23T09:23:50;99669.94;;;12.13;44.87
21803;BME280;18591;47.080;22.214;2023-02-23T09:25:53;99669.84;;;12.15;45.79
21803;BME280;18591;47.080;22.214;2023-02-23T09:27:56;99676.88;;;12.19;46.17
21803;BME280;18591;47.080;22.214;2023-02-23T09:29:58;99677.69;;;12.21;45.50
21803;BME280;18591;47.080;22.214;2023-02-23T09:32:00;99665.13;;;12.20;45.36
21803;BME280;18591;47.080;22.214;2023-02-23T09:34:03;99673.84;;;12.27;46.00
21803;BME280;18591;47.080;22.214;2023-02-23T09:36:10;99668.94;;;12.36;45.25
21803;BME280;18591;47.080;22.214;2023-02-23T09:38:19;99672.22;;;12.43;46.72
21803;BME280;18591;47.080;22.214;2023-02-23T09:40:29;99671.97;;;12.49;47.06
21803;BME280;18591;47.080;22.214;2023-02-23T09:44:51;99674.19;;;12.60;47.79
21803;BME280;18591;47.080;22.214;2023-02-23T09:47:17;99672.22;;;12.63;47.55
21803;BME280;18591;47.080;22.214;2023-02-23T09:49:27;99679.44;;;12.63;47.31
21803;BME280;18591;47.080;22.214;2023-02-23T09:51:37;99678.38;;;12.67;47.51
21803;BME280;18591;47.080;22.214;2023-02-23T09:53:46;99666.97;;;12.81;47.51
21803;BME280;18591;47.080;22.214;2023-02-23T09:55:54;99671.28;;;12.85;47.89
21803;BME280;18591;47.080;22.214;2023-02-23T09:58:06;99669.25;;;12.90;47.30
21803;BME280;18591;47.080;22.214;2023-02-23T10:00:24;99675.31;;;12.95;47.32
21803;BME280;18591;47.080;22.214;2023-02-23T10:05:08;99666.50;;;13.31;46.32
21803;BME280;18591;47.080;22.214;2023-02-23T10:10:05;99662.41;;;13.41;42.75
21803;BME280;18591;47.080;22.214;2023-02-23T10:19:43;99660.91;;;13.72;42.49
21803;BME280;18591;47.080;22.214;2023-02-23T10:21:56;99660.53;;;13.80;41.64
21803;BME280;18591;47.080;22.214;2023-02-23T10:24:15;99655.78;;;13.85;41.39
21803;BME280;18591;47.080;22.214;2023-02-23T10:26:25;99657.13;;;13.93;41.96
21803;BME280;18591;47.080;22.214;2023-02-23T10:28:33;99657.78;;;13.99;42.12
21803;BME280;18591;47.080;22.214;2023-02-23T10:30:35;99656.38;;;14.09;42.24
21803;BME280;18591;47.080;22.214;2023-02-23T10:32:50;99650.16;;;14.07;40.94
21803;BME280;18591;47.080;22.214;2023-02-23T10:34:54;99647.94;;;14.15;42.53
21803;BME280;18591;47.080;22.214;2023-02-23T10:36:59;99648.50;;;14.22;42.17
21803;BME280;18591;47.080;22.214;2023-02-23T10:39:06;99643.09;;;14.22;42.30
21803;BME280;18591;47.080;22.214;2023-02-23T10:41:10;99638.16;;;14.30;42.17
21803;BME280;18591;47.080;22.214;2023-02-23T10:43:15;99634.13;;;14.38;42.37
21803;BME280;18591;47.080;22.214;2023-02-23T10:45:20;99637.59;;;14.41;42.21
21803;BME280;18591;47.080;22.214;2023-02-23T10:47:30;99642.59;;;14.48;41.27
21803;BME280;18591;47.080;22.214;2023-02-23T10:49:45;99632.47;;;14.53;41.32
21803;BME280;18591;47.080;22.214;2023-02-23T10:51:48;99629.69;;;14.55;41.00
21803;BME280;18591;47.080;22.214;2023-02-23T10:53:54;99629.13;;;14.66;41.70
21803;BME280;18591;47.080;22.214;2023-02-23T10:58:17;99607.75;;;14.77;41.51
21803;BME280;18591;47.080;22.214;2023-02-23T11:00:27;99605.69;;;14.82;41.65
21803;BME280;18591;47.080;22.214;2023-02-23T11:02:34;99616.34;;;14.85;41.99
21803;BME280;18591;47.080;22.214;2023-02-23T11:04:50;99611.03;;;14.84;40.86
21803;BME280;18591;47.080;22.214;2023-02-23T11:07:16;99605.59;;;14.84;41.00
21803;BME280;18591;47.080;22.214;2023-02-23T11:09:28;99603.53;;;14.89;41.13
21803;BME280;18591;47.080;22.214;2023-02-23T11:12:02;99600.03;;;14.87;40.54
21803;BME280;18591;47.080;22.214;2023-02-23T11:14:15;99594.44;;;14.90;40.75
21803;BME280;18591;47.080;22.214;2023-02-23T11:16:23;99600.56;;;14.93;41.48
21803;BME280;18591;47.080;22.214;2023-02-23T11:18:26;99605.75;;;14.98;41.43
21803;BME280;18591;47.080;22.214;2023-02-23T11:20:34;99602.13;;;14.97;40.20
21803;BME280;18591;47.080;22.214;2023-02-23T11:22:40;99595.59;;;15.01;41.54
21803;BME280;18591;47.080;22.214;2023-02-23T11:24:43;99598.84;;;15.08;42.25
21803;BME280;18591;47.080;22.214;2023-02-23T11:26:47;99598.50;;;15.14;41.63
21803;BME280;18591;47.080;22.214;2023-02-23T11:28:54;99594.50;;;15.21;41.88
21803;BME280;18591;47.080;22.214;2023-02-23T11:31:12;99599.56;;;15.28;40.97
21803;BME280;18591;47.080;22.214;2023-02-23T11:33:20;99586.44;;;15.36;41.17
21803;BME280;18591;47.080;22.214;2023-02-23T11:35:28;99596.94;;;15.42;41.23
21803;BME280;18591;47.080;22.214;2023-02-23T11:37:31;99592.16;;;15.47;41.12
21803;BME280;18591;47.080;22.214;2023-02-23T11:39:33;99589.06;;;15.53;41.36
21803;BME280;18591;47.080;22.214;2023-02-23T11:41:40;99588.72;;;15.59;41.35
21803;BME280;18591;47.080;22.214;2023-02-23T11:43:50;99588.63;;;15.61;39.89
21803;BME280;18591;47.080;22.214;2023-02-23T11:45:55;99583.03;;;15.64;40.83
21803;BME280;18591;47.080;22.214;2023-02-23T11:47:58;99584.59;;;15.68;40.53
21803;BME280;18591;47.080;22.214;2023-02-23T11:50:03;99584.59;;;15.68;39.96
21803;BME280;18591;47.080;22.214;2023-02-23T11:52:17;99588.19;;;15.68;38.83
21803;BME280;18591;47.080;22.214;2023-02-23T11:54:28;99582.72;;;15.70;38.74
21803;BME280;18591;47.080;22.214;2023-02-23T11:56:32;99580.69;;;15.74;40.02
21803;BME280;18591;47.080;22.214;2023-02-23T11:58:42;99580.63;;;15.75;39.21
21803;BME280;18591;47.080;22.214;2023-02-23T12:00:57;99575.09;;;15.77;38.08
21803;BME280;18591;47.080;22.214;2023-02-23T12:03:01;99579.81;;;15.73;38.92
21803;BME280;18591;47.080;22.214;2023-02-23T12:05:08;99584.38;;;15.73;39.22